sensor_id;sensor_type;location;lat;lon;timestamp;temperature;humidity
8424;DHT22;4249;49.072;9.770;2022-11-20T00:02:34;4.90;1.00
8424;DHT22;4249;49.072;9.770;2022-11-20T00:05:21;4.90;1.00
8424;DHT22;4249;49.072;9.770;2022-11-20T00:08:08;5.00;1.00
8424;DHT22;4249;49.072;9.770;2022-11-20T00:10:55;5.00;1.00
8424;DHT22;4249;49.072;9.770;2022-11-20T00:13:42;5.00;1.00
8424;DHT22;4249;49.072;9.770;2022-11-20T00:16:31;5.10;1.00
8424;DHT22;4249;49.072;9.770;2022-11-20T00:19:20;5.10;1.00
8424;DHT22;4249;49.072;9.770;2022-11-20T00:22:08;5.10;1.00
8424;DHT22;4249;49.072;9.770;2022-11-20T00:24:55;5.20;1.00
8424;DHT22;4249;49.072;9.770;2022-11-20T00:27:43;5.20;1.00
8424;DHT22;4249;49.072;9.770;2022-11-20T00:30:30;5.20;1.00
8424;DHT22;4249;49.072;9.770;2022-11-20T00:33:17;5.30;1.00
8424;DHT22;4249;49.072;9.770;2022-11-20T00:36:07;5.30;1.00
8424;DHT22;4249;49.072;9.770;2022-11-20T00:38:56;5.20;1.00
8424;DHT22;4249;49.072;9.770;2022-11-20T00:41:44;5.30;1.00
8424;DHT22;4249;49.072;9.770;2022-11-20T00:44:31;5.30;1.00
8424;DHT22;4249;49.072;9.770;2022-11-20T00:47:18;5.30;1.00
8424;DHT22;4249;49.072;9.770;2022-11-20T00:50:06;5.30;1.00
8424;DHT22;4249;49.072;9.770;2022-11-20T00:52:55;5.40;1.00
8424;DHT22;4249;49.072;9.770;2022-11-20T00:55:42;5.40;1.00
8424;DHT22;4249;49.072;9.770;2022-11-20T00:58:30;5.40;1.00
8424;DHT22;4249;49.072;9.770;2022-11-20T01:01:19;5.40;1.00
8424;DHT22;4249;49.072;9.770;2022-11-20T01:04:07;5.50;1.00
8424;DHT22;4249;49.072;9.770;2022-11-20T01:06:54;5.50;1.00
8424;DHT22;4249;49.072;9.770;2022-11-20T01:09:43;5.50;1.00
8424;DHT22;4249;49.072;9.770;2022-11-20T01:12:31;5.50;1.00
8424;DHT22;4249;49.072;9.770;2022-11-20T01:15:18;5.60;1.00
8424;DHT22;4249;49.072;9.770;2022-11-20T01:18:05;5.60;1.00
8424;DHT22;4249;49.072;9.770;2022-11-20T01:20:52;5.70;1.00
8424;DHT22;4249;49.072;9.770;2022-11-20T01:23:40;5.70;1.00
8424;DHT22;4249;49.072;9.770;2022-11-20T01:26:31;5.60;1.00
8424;DHT22;4249;49.072;9.770;2022-11-20T01:29:20;5.60;1.00
8424;DHT22;4249;49.072;9.770;2022-11-20T01:32:07;5.60;1.00
8424;DHT22;4249;49.072;9.770;2022-11-20T01:34:55;5.60;1.00
8424;DHT22;4249;49.072;9.770;2022-11-20T01:37:42;5.60;1.00
8424;DHT22;4249;49.072;9.770;2022-11-20T01:40:29;5.60;1.00
8424;DHT22;4249;49.072;9.770;2022-11-20T01:43:18;5.60;1.00
8424;DHT22;4249;49.072;9.770;2022-11-20T01:46:14;5.60;1.00
8424;DHT22;4249;49.072;9.770;2022-11-20T01:49:04;5.70;1.00
8424;DHT22;4249;49.072;9.770;2022-11-20T01:51:55;5.60;1.00
8424;DHT22;4249;49.072;9.770;2022-11-20T01:54:47;5.60;1.00
8424;DHT22;4249;49.072;9.770;2022-11-20T01:57:36;5.70;1.00
8424;DHT22;4249;49.072;9.770;2022-11-20T02:00:26;5.70;1.00
8424;DHT22;4249;49.072;9.770;2022-11-20T02:03:16;5.70;1.00
8424;DHT22;4249;49.072;9.770;2022-11-20T02:06:07;5.70;1.00
8424;DHT22;4249;49.072;9.770;2022-11-20T02:08:57;5.70;1.00
8424;DHT22;4249;49.072;9.770;2022-11-20T02:11:44;5.80;1.00
8424;DHT22;4249;49.072;9.770;2022-11-20T02:14:31;5.70;1.00
8424;DHT22;4249;49.072;9.770;2022-11-20T02:17:56;5.80;1.00
8424;DHT22;4249;49.072;9.770;2022-11-20T02:20:46;5.70;1.00
8424;DHT22;4249;49.072;9.770;2022-11-20T02:23:39;5.70;1.00
8424;DHT22;4249;49.072;9.770;2022-11-20T02:26:31;5.80;1.00
8424;DHT22;4249;49.072;9.770;2022-11-20T02:29:23;5.90;1.00
8424;DHT22;4249;49.072;9.770;2022-11-20T02:32:18;5.80;1.00
8424;DHT22;4249;49.072;9.770;2022-11-20T02:35:08;5.80;1.00
8424;DHT22;4249;49.072;9.770;2022-11-20T02:37:57;5.80;1.00
8424;DHT22;4249;49.072;9.770;2022-11-20T02:40:45;5.80;1.00
8424;DHT22;4249;49.072;9.770;2022-11-20T02:43:33;5.80;1.00
8424;DHT22;4249;49.072;9.770;2022-11-20T02:46:20;5.90;1.00
8424;DHT22;4249;49.072;9.770;2022-11-20T02:49:07;5.90;1.00
8424;DHT22;4249;49.072;9.770;2022-11-20T02:51:55;5.90;1.00
8424;DHT22;4249;49.072;9.770;2022-11-20T02:54:42;5.80;1.00
8424;DHT22;4249;49.072;9.770;2022-11-20T02:57:29;5.80;1.00
8424;DHT22;4249;49.072;9.770;2022-11-20T03:00:18;5.80;1.00
8424;DHT22;4249;49.072;9.770;2022-11-20T03:03:06;5.80;1.00
8424;DHT22;4249;49.072;9.770;2022-11-20T03:05:53;5.80;1.00
8424;DHT22;4249;49.072;9.770;2022-11-20T03:08:40;5.80;1.00
8424;DHT22;4249;49.072;9.770;2022-11-20T03:11:28;5.80;1.00
8424;DHT22;4249;49.072;9.770;2022-11-20T03:14:15;5.80;1.00
8424;DHT22;4249;49.072;9.770;2022-11-20T03:17:04;5.90;1.00
8424;DHT22;4249;49.072;9.770;2022-11-20T03:19:51;5.80;1.00
8424;DHT22;4249;49.072;9.770;2022-11-20T03:22:38;5.80;1.00
8424;DHT22;4249;49.072;9.770;2022-11-20T03:25:25;5.70;1.00
8424;DHT22;4249;49.072;9.770;2022-11-20T03:28:12;5.70;1.00
8424;DHT22;4249;49.072;9.770;2022-11-20T03:31:05;5.70;1.00
8424;DHT22;4249;49.072;9.770;2022-11-20T03:33:54;5.70;1.00
8424;DHT22;4249;49.072;9.770;2022-11-20T03:36:42;5.80;1.00
8424;DHT22;4249;49.072;9.770;2022-11-20T03:39:29;5.70;1.00
8424;DHT22;4249;49.072;9.770;2022-11-20T03:42:16;5.70;1.00
8424;DHT22;4249;49.072;9.770;2022-11-20T03:45:21;5.70;1.00
8424;DHT22;4249;49.072;9.770;2022-11-20T03:48:08;5.70;1.00
8424;DHT22;4249;49.072;9.770;2022-11-20T03:51:11;5.70;1.00
8424;DHT22;4249;49.072;9.770;2022-11-20T03:54:00;5.70;1.00
8424;DHT22;4249;49.072;9.770;2022-11-20T03:56:47;5.60;1.00
8424;DHT22;4249;49.072;9.770;2022-11-20T03:59:35;5.60;1.00
8424;DHT22;4249;49.072;9.770;2022-11-20T04:02:22;5.60;1.00
8424;DHT22;4249;49.072;9.770;2022-11-20T04:05:09;5.60;1.00
8424;DHT22;4249;49.072;9.770;2022-11-20T04:07:57;5.70;1.00
8424;DHT22;4249;49.072;9.770;2022-11-20T04:10:45;5.80;1.00
8424;DHT22;4249;49.072;9.770;2022-11-20T04:13:32;5.70;1.00
8424;DHT22;4249;49.072;9.770;2022-11-20T04:16:20;5.70;1.00
8424;DHT22;4249;49.072;9.770;2022-11-20T04:19:11;5.80;1.00
8424;DHT22;4249;49.072;9.770;2022-11-20T04:21:59;5.80;1.00
8424;DHT22;4249;49.072;9.770;2022-11-20T04:24:47;5.70;1.00
8424;DHT22;4249;49.072;9.770;2022-11-20T04:27:34;5.70;1.00
8424;DHT22;4249;49.072;9.770;2022-11-20T04:30:22;5.80;1.00
8424;DHT22;4249;49.072;9.770;2022-11-20T04:33:09;5.70;1.00
8424;DHT22;4249;49.072;9.770;2022-11-20T04:36:00;5.80;1.00
8424;DHT22;4249;49.072;9.770;2022-11-20T04:38:51;5.70;1.00
8424;DHT22;4249;49.072;9.770;2022-11-20T04:41:40;5.70;1.00
8424;DHT22;4249;49.072;9.770;2022-11-20T04:44:27;5.70;1.00
8424;DHT22;4249;49.072;9.770;2022-11-20T04:47:14;5.70;1.00
8424;DHT22;4249;49.072;9.770;2022-11-20T04:50:01;5.70;1.00
8424;DHT22;4249;49.072;9.770;2022-11-20T04:52:49;5.60;1.00
8424;DHT22;4249;49.072;9.770;2022-11-20T04:55:36;5.60;1.00
8424;DHT22;4249;49.072;9.770;2022-11-20T04:58:25;5.60;1.00
8424;DHT22;4249;49.072;9.770;2022-11-20T05:01:13;5.60;1.00
8424;DHT22;4249;49.072;9.770;2022-11-20T05:04:01;5.70;1.00
8424;DHT22;4249;49.072;9.770;2022-11-20T05:06:49;5.70;1.00
8424;DHT22;4249;49.072;9.770;2022-11-20T05:09:36;5.80;1.00
8424;DHT22;4249;49.072;9.770;2022-11-20T05:12:23;5.70;1.00
8424;DHT22;4249;49.072;9.770;2022-11-20T05:15:12;5.70;1.00
8424;DHT22;4249;49.072;9.770;2022-11-20T05:17:59;5.70;1.00
8424;DHT22;4249;49.072;9.770;2022-11-20T05:20:46;5.70;1.00
8424;DHT22;4249;49.072;9.770;2022-11-20T05:23:33;5.60;1.00
8424;DHT22;4249;49.072;9.770;2022-11-20T05:26:21;5.70;1.00
8424;DHT22;4249;49.072;9.770;2022-11-20T05:29:10;5.70;1.00
8424;DHT22;4249;49.072;9.770;2022-11-20T05:31:59;5.70;1.00
8424;DHT22;4249;49.072;9.770;2022-11-20T05:34:46;5.60;1.00
8424;DHT22;4249;49.072;9.770;2022-11-20T05:37:33;5.60;1.00
8424;DHT22;4249;49.072;9.770;2022-11-20T05:40:20;5.70;1.00
8424;DHT22;4249;49.072;9.770;2022-11-20T05:43:07;5.70;1.00
8424;DHT22;4249;49.072;9.770;2022-11-20T05:45:54;5.70;1.00
8424;DHT22;4249;49.072;9.770;2022-11-20T05:48:44;5.70;1.00
8424;DHT22;4249;49.072;9.770;2022-11-20T05:51:31;5.60;1.00
8424;DHT22;4249;49.072;9.770;2022-11-20T05:54:18;5.60;1.00
8424;DHT22;4249;49.072;9.770;2022-11-20T05:57:05;5.60;1.00
8424;DHT22;4249;49.072;9.770;2022-11-20T05:59:53;5.60;1.00
8424;DHT22;4249;49.072;9.770;2022-11-20T06:02:40;5.60;1.00
8424;DHT22;4249;49.072;9.770;2022-11-20T06:05:28;5.60;1.00
8424;DHT22;4249;49.072;9.770;2022-11-20T06:08:16;5.60;1.00
8424;DHT22;4249;49.072;9.770;2022-11-20T06:11:04;5.60;1.00
8424;DHT22;4249;49.072;9.770;2022-11-20T06:13:51;5.60;1.00
8424;DHT22;4249;49.072;9.770;2022-11-20T06:16:38;5.50;1.00
8424;DHT22;4249;49.072;9.770;2022-11-20T06:19:25;5.60;1.00
8424;DHT22;4249;49.072;9.770;2022-11-20T06:22:14;5.60;1.00
8424;DHT22;4249;49.072;9.770;2022-11-20T06:25:01;5.60;1.00
8424;DHT22;4249;49.072;9.770;2022-11-20T06:27:49;5.70;1.00
8424;DHT22;4249;49.072;9.770;2022-11-20T06:30:37;5.70;1.00
8424;DHT22;4249;49.072;9.770;2022-11-20T06:33:24;5.80;1.00
8424;DHT22;4249;49.072;9.770;2022-11-20T06:36:13;5.70;1.00
8424;DHT22;4249;49.072;9.770;2022-11-20T06:39:02;5.70;1.00
8424;DHT22;4249;49.072;9.770;2022-11-20T06:41:49;5.70;1.00
8424;DHT22;4249;49.072;9.770;2022-11-20T06:44:36;5.70;1.00
8424;DHT22;4249;49.072;9.770;2022-11-20T06:47:23;5.70;1.00
8424;DHT22;4249;49.072;9.770;2022-11-20T06:50:10;5.80;1.00
8424;DHT22;4249;49.072;9.770;2022-11-20T06:53:00;5.80;1.00
8424;DHT22;4249;49.072;9.770;2022-11-20T06:55:50;5.80;1.00
8424;DHT22;4249;49.072;9.770;2022-11-20T06:58:37;5.80;1.00
8424;DHT22;4249;49.072;9.770;2022-11-20T07:01:25;5.80;1.00
8424;DHT22;4249;49.072;9.770;2022-11-20T07:04:12;5.80;1.00
8424;DHT22;4249;49.072;9.770;2022-11-20T07:06:59;5.80;1.00
8424;DHT22;4249;49.072;9.770;2022-11-20T07:09:46;5.70;1.00
8424;DHT22;4249;49.072;9.770;2022-11-20T07:12:35;5.70;1.00
8424;DHT22;4249;49.072;9.770;2022-11-20T07:15:23;5.80;1.00
8424;DHT22;4249;49.072;9.770;2022-11-20T07:18:11;5.70;1.00
8424;DHT22;4249;49.072;9.770;2022-11-20T07:21:00;5.70;1.00
8424;DHT22;4249;49.072;9.770;2022-11-20T07:23:48;5.70;1.00
8424;DHT22;4249;49.072;9.770;2022-11-20T07:26:35;5.80;1.00
8424;DHT22;4249;49.072;9.770;2022-11-20T07:29:23;5.80;1.00
8424;DHT22;4249;49.072;9.770;2022-11-20T07:32:11;5.80;1.00
8424;DHT22;4249;49.072;9.770;2022-11-20T07:34:58;5.80;1.00
8424;DHT22;4249;49.072;9.770;2022-11-20T07:37:45;5.70;1.00
8424;DHT22;4249;49.072;9.770;2022-11-20T07:40:33;5.70;1.00
8424;DHT22;4249;49.072;9.770;2022-11-20T07:43:20;5.70;1.00
8424;DHT22;4249;49.072;9.770;2022-11-20T07:46:08;5.80;1.00
8424;DHT22;4249;49.072;9.770;2022-11-20T07:48:55;5.80;1.00
8424;DHT22;4249;49.072;9.770;2022-11-20T07:51:43;5.70;1.00
8424;DHT22;4249;49.072;9.770;2022-11-20T07:54:30;5.70;1.00
8424;DHT22;4249;49.072;9.770;2022-11-20T07:57:17;5.70;1.00
8424;DHT22;4249;49.072;9.770;2022-11-20T08:00:06;5.80;1.00
8424;DHT22;4249;49.072;9.770;2022-11-20T08:02:56;5.90;1.00
8424;DHT22;4249;49.072;9.770;2022-11-20T08:05:43;5.80;1.00
8424;DHT22;4249;49.072;9.770;2022-11-20T08:08:30;5.80;1.00
8424;DHT22;4249;49.072;9.770;2022-11-20T08:11:17;5.80;1.00
8424;DHT22;4249;49.072;9.770;2022-11-20T08:14:22;5.70;1.00
8424;DHT22;4249;49.072;9.770;2022-11-20T08:17:09;5.80;1.00
8424;DHT22;4249;49.072;9.770;2022-11-20T08:19:58;5.90;1.00
8424;DHT22;4249;49.072;9.770;2022-11-20T08:22:45;5.80;1.00
8424;DHT22;4249;49.072;9.770;2022-11-20T08:25:33;5.80;1.00
8424;DHT22;4249;49.072;9.770;2022-11-20T08:28:20;5.80;1.00
8424;DHT22;4249;49.072;9.770;2022-11-20T08:31:07;5.80;1.00
8424;DHT22;4249;49.072;9.770;2022-11-20T08:33:55;5.70;1.00
8424;DHT22;4249;49.072;9.770;2022-11-20T08:36:44;5.80;1.00
8424;DHT22;4249;49.072;9.770;2022-11-20T08:39:31;5.80;1.00
8424;DHT22;4249;49.072;9.770;2022-11-20T08:42:19;5.90;1.00
8424;DHT22;4249;49.072;9.770;2022-11-20T08:45:06;6.00;1.00
8424;DHT22;4249;49.072;9.770;2022-11-20T08:47:59;6.00;1.00
8424;DHT22;4249;49.072;9.770;2022-11-20T08:50:46;6.00;1.00
8424;DHT22;4249;49.072;9.770;2022-11-20T08:53:35;6.00;1.00
8424;DHT22;4249;49.072;9.770;2022-11-20T08:56:22;6.00;1.00
8424;DHT22;4249;49.072;9.770;2022-11-20T08:59:09;6.10;1.00
8424;DHT22;4249;49.072;9.770;2022-11-20T09:01:56;6.00;1.00
8424;DHT22;4249;49.072;9.770;2022-11-20T09:04:44;6.00;1.00
8424;DHT22;4249;49.072;9.770;2022-11-20T09:07:31;6.20;1.00
8424;DHT22;4249;49.072;9.770;2022-11-20T09:10:20;6.20;1.00
8424;DHT22;4249;49.072;9.770;2022-11-20T09:13:07;6.30;1.00
8424;DHT22;4249;49.072;9.770;2022-11-20T09:15:55;6.30;1.00
8424;DHT22;4249;49.072;9.770;2022-11-20T09:18:43;6.40;1.00
8424;DHT22;4249;49.072;9.770;2022-11-20T09:21:30;6.30;1.00
8424;DHT22;4249;49.072;9.770;2022-11-20T09:24:18;6.30;1.00
8424;DHT22;4249;49.072;9.770;2022-11-20T09:27:07;6.30;1.00
8424;DHT22;4249;49.072;9.770;2022-11-20T09:29:55;6.30;1.00
8424;DHT22;4249;49.072;9.770;2022-11-20T09:32:43;6.30;1.00
8424;DHT22;4249;49.072;9.770;2022-11-20T09:35:30;6.30;1.00
8424;DHT22;4249;49.072;9.770;2022-11-20T09:38:17;6.20;1.00
8424;DHT22;4249;49.072;9.770;2022-11-20T09:41:06;6.30;1.00
8424;DHT22;4249;49.072;9.770;2022-11-20T09:44:00;6.40;1.00
8424;DHT22;4249;49.072;9.770;2022-11-20T09:46:54;6.40;1.00
8424;DHT22;4249;49.072;9.770;2022-11-20T09:49:55;6.60;1.00
8424;DHT22;4249;49.072;9.770;2022-11-20T09:52:49;6.50;1.00
8424;DHT22;4249;49.072;9.770;2022-11-20T09:55:40;6.60;1.00
8424;DHT22;4249;49.072;9.770;2022-11-20T09:58:31;6.60;1.00
8424;DHT22;4249;49.072;9.770;2022-11-20T10:01:25;6.60;1.00
8424;DHT22;4249;49.072;9.770;2022-11-20T10:04:17;6.50;1.00
8424;DHT22;4249;49.072;9.770;2022-11-20T10:07:08;6.50;1.00
8424;DHT22;4249;49.072;9.770;2022-11-20T10:09:59;6.40;1.00
8424;DHT22;4249;49.072;9.770;2022-11-20T10:12:57;6.30;1.00
8424;DHT22;4249;49.072;9.770;2022-11-20T10:15:56;6.40;1.00
8424;DHT22;4249;49.072;9.770;2022-11-20T10:18:54;6.40;1.00
8424;DHT22;4249;49.072;9.770;2022-11-20T10:21:55;6.50;1.00
8424;DHT22;4249;49.072;9.770;2022-11-20T10:24:55;6.70;1.00
8424;DHT22;4249;49.072;9.770;2022-11-20T10:27:56;6.80;1.00
8424;DHT22;4249;49.072;9.770;2022-11-20T10:30:48;6.80;1.00
8424;DHT22;4249;49.072;9.770;2022-11-20T10:33:40;6.90;1.00
8424;DHT22;4249;49.072;9.770;2022-11-20T10:36:34;7.00;1.00
8424;DHT22;4249;49.072;9.770;2022-11-20T10:39:28;6.90;1.00
8424;DHT22;4249;49.072;9.770;2022-11-20T10:42:23;6.90;1.00
8424;DHT22;4249;49.072;9.770;2022-11-20T10:45:30;6.80;1.00
8424;DHT22;4249;49.072;9.770;2022-11-20T10:48:21;6.80;1.00
8424;DHT22;4249;49.072;9.770;2022-11-20T10:51:18;6.80;1.00
8424;DHT22;4249;49.072;9.770;2022-11-20T10:54:19;6.80;1.00
8424;DHT22;4249;49.072;9.770;2022-11-20T10:57:20;6.80;1.00
8424;DHT22;4249;49.072;9.770;2022-11-20T11:00:12;7.00;1.00
8424;DHT22;4249;49.072;9.770;2022-11-20T11:02:59;7.00;1.00
8424;DHT22;4249;49.072;9.770;2022-11-20T11:05:51;6.90;1.00
8424;DHT22;4249;49.072;9.770;2022-11-20T11:08:41;6.90;1.00
8424;DHT22;4249;49.072;9.770;2022-11-20T11:11:33;6.90;1.00
8424;DHT22;4249;49.072;9.770;2022-11-20T11:14:20;7.00;1.00
8424;DHT22;4249;49.072;9.770;2022-11-20T11:17:21;7.00;1.00
8424;DHT22;4249;49.072;9.770;2022-11-20T11:20:16;7.00;1.00
8424;DHT22;4249;49.072;9.770;2022-11-20T11:23:04;7.10;1.00
8424;DHT22;4249;49.072;9.770;2022-11-20T11:25:57;7.20;1.00
8424;DHT22;4249;49.072;9.770;2022-11-20T11:28:55;7.20;1.00
8424;DHT22;4249;49.072;9.770;2022-11-20T11:31:43;7.10;1.00
8424;DHT22;4249;49.072;9.770;2022-11-20T11:34:30;7.10;1.00
8424;DHT22;4249;49.072;9.770;2022-11-20T11:37:19;7.00;1.00
8424;DHT22;4249;49.072;9.770;2022-11-20T11:40:10;7.00;1.00
8424;DHT22;4249;49.072;9.770;2022-11-20T11:42:59;7.00;1.00
8424;DHT22;4249;49.072;9.770;2022-11-20T11:45:53;7.00;1.00
8424;DHT22;4249;49.072;9.770;2022-11-20T11:48:40;7.00;1.00
8424;DHT22;4249;49.072;9.770;2022-11-20T11:51:33;7.00;1.00
8424;DHT22;4249;49.072;9.770;2022-11-20T11:54:24;7.00;1.00
8424;DHT22;4249;49.072;9.770;2022-11-20T11:57:18;6.90;1.00
8424;DHT22;4249;49.072;9.770;2022-11-20T12:00:09;6.90;1.00
8424;DHT22;4249;49.072;9.770;2022-11-20T12:03:05;6.90;1.00
8424;DHT22;4249;49.072;9.770;2022-11-20T12:05:59;7.00;1.00
8424;DHT22;4249;49.072;9.770;2022-11-20T12:08:50;7.10;1.00
8424;DHT22;4249;49.072;9.770;2022-11-20T12:11:45;7.10;1.00
8424;DHT22;4249;49.072;9.770;2022-11-20T12:14:34;7.00;1.00
8424;DHT22;4249;49.072;9.770;2022-11-20T12:17:22;7.00;1.00
8424;DHT22;4249;49.072;9.770;2022-11-20T12:20:13;7.00;1.00
8424;DHT22;4249;49.072;9.770;2022-11-20T12:23:07;7.00;1.00
8424;DHT22;4249;49.072;9.770;2022-11-20T12:25:58;7.00;1.00
8424;DHT22;4249;49.072;9.770;2022-11-20T12:29:00;7.10;1.00
8424;DHT22;4249;49.072;9.770;2022-11-20T12:32:03;7.10;1.00
8424;DHT22;4249;49.072;9.770;2022-11-20T12:35:00;7.10;1.00
8424;DHT22;4249;49.072;9.770;2022-11-20T12:38:06;7.10;1.00
8424;DHT22;4249;49.072;9.770;2022-11-20T12:41:04;7.20;1.00
8424;DHT22;4249;49.072;9.770;2022-11-20T12:44:04;7.40;1.00
8424;DHT22;4249;49.072;9.770;2022-11-20T12:47:17;7.80;1.00
8424;DHT22;4249;49.072;9.770;2022-11-20T12:50:13;8.00;99.90
8424;DHT22;4249;49.072;9.770;2022-11-20T12:53:05;8.40;99.90
8424;DHT22;4249;49.072;9.770;2022-11-20T12:56:03;8.60;1.00
8424;DHT22;4249;49.072;9.770;2022-11-20T12:59:02;8.60;1.00
8424;DHT22;4249;49.072;9.770;2022-11-20T13:01:56;8.50;1.00
8424;DHT22;4249;49.072;9.770;2022-11-20T13:05:02;8.20;1.00
8424;DHT22;4249;49.072;9.770;2022-11-20T13:07:53;8.10;1.00
8424;DHT22;4249;49.072;9.770;2022-11-20T13:10:45;8.10;99.90
8424;DHT22;4249;49.072;9.770;2022-11-20T13:13:44;8.00;1.00
8424;DHT22;4249;49.072;9.770;2022-11-20T13:16:36;8.10;98.80
8424;DHT22;4249;49.072;9.770;2022-11-20T13:19:25;8.20;1.00
8424;DHT22;4249;49.072;9.770;2022-11-20T13:22:24;8.20;1.00
8424;DHT22;4249;49.072;9.770;2022-11-20T13:25:22;8.20;99.90
8424;DHT22;4249;49.072;9.770;2022-11-20T13:28:27;8.10;1.00
8424;DHT22;4249;49.072;9.770;2022-11-20T13:31:29;8.30;99.90
8424;DHT22;4249;49.072;9.770;2022-11-20T13:34:24;8.20;1.00
8424;DHT22;4249;49.072;9.770;2022-11-20T13:37:25;8.20;99.90
8424;DHT22;4249;49.072;9.770;2022-11-20T13:40:21;7.90;1.00
8424;DHT22;4249;49.072;9.770;2022-11-20T13:43:19;7.90;1.00
8424;DHT22;4249;49.072;9.770;2022-11-20T13:46:09;7.90;1.00
8424;DHT22;4249;49.072;9.770;2022-11-20T13:49:05;7.90;99.90
8424;DHT22;4249;49.072;9.770;2022-11-20T13:52:03;7.80;99.90
8424;DHT22;4249;49.072;9.770;2022-11-20T13:55:02;7.70;99.90
8424;DHT22;4249;49.072;9.770;2022-11-20T13:58:13;7.70;1.00
8424;DHT22;4249;49.072;9.770;2022-11-20T14:01:13;7.70;1.00
8424;DHT22;4249;49.072;9.770;2022-11-20T14:04:06;7.60;99.90
8424;DHT22;4249;49.072;9.770;2022-11-20T14:06:55;7.50;56.50
8424;DHT22;4249;49.072;9.770;2022-11-20T14:09:50;7.50;1.00
8424;DHT22;4249;49.072;9.770;2022-11-20T14:12:39;7.60;1.00
8424;DHT22;4249;49.072;9.770;2022-11-20T14:15:29;7.50;1.00
8424;DHT22;4249;49.072;9.770;2022-11-20T14:18:20;7.60;99.90
8424;DHT22;4249;49.072;9.770;2022-11-20T14:21:09;7.70;1.00
8424;DHT22;4249;49.072;9.770;2022-11-20T14:24:09;7.80;1.00
8424;DHT22;4249;49.072;9.770;2022-11-20T14:26:57;7.90;1.00
8424;DHT22;4249;49.072;9.770;2022-11-20T14:29:46;7.80;75.90
8424;DHT22;4249;49.072;9.770;2022-11-20T14:32:35;7.80;1.00
8424;DHT22;4249;49.072;9.770;2022-11-20T14:35:27;7.70;1.00
8424;DHT22;4249;49.072;9.770;2022-11-20T14:38:16;7.60;1.00
8424;DHT22;4249;49.072;9.770;2022-11-20T14:41:08;7.40;99.90
8424;DHT22;4249;49.072;9.770;2022-11-20T14:43:57;7.20;99.90
8424;DHT22;4249;49.072;9.770;2022-11-20T14:46:45;7.10;99.90
8424;DHT22;4249;49.072;9.770;2022-11-20T14:49:32;7.10;99.90
8424;DHT22;4249;49.072;9.770;2022-11-20T14:52:22;6.90;93.30
8424;DHT22;4249;49.072;9.770;2022-11-20T14:55:13;6.80;47.70
8424;DHT22;4249;49.072;9.770;2022-11-20T14:58:21;6.70;99.90
8424;DHT22;4249;49.072;9.770;2022-11-20T15:01:12;6.70;99.90
8424;DHT22;4249;49.072;9.770;2022-11-20T15:04:04;6.60;1.00
8424;DHT22;4249;49.072;9.770;2022-11-20T15:06:53;6.60;1.00
8424;DHT22;4249;49.072;9.770;2022-11-20T15:09:42;6.60;99.90
8424;DHT22;4249;49.072;9.770;2022-11-20T15:12:30;6.50;99.90
8424;DHT22;4249;49.072;9.770;2022-11-20T15:15:21;6.40;1.00
8424;DHT22;4249;49.072;9.770;2022-11-20T15:18:11;6.40;1.00
8424;DHT22;4249;49.072;9.770;2022-11-20T15:21:02;6.30;1.00
8424;DHT22;4249;49.072;9.770;2022-11-20T15:23:50;6.20;1.00
8424;DHT22;4249;49.072;9.770;2022-11-20T15:26:39;6.10;1.00
8424;DHT22;4249;49.072;9.770;2022-11-20T15:29:26;6.10;99.90
8424;DHT22;4249;49.072;9.770;2022-11-20T15:32:13;6.00;1.00
8424;DHT22;4249;49.072;9.770;2022-11-20T15:35:00;5.80;99.90
8424;DHT22;4249;49.072;9.770;2022-11-20T15:37:47;5.80;1.00
8424;DHT22;4249;49.072;9.770;2022-11-20T15:40:34;5.80;1.00
8424;DHT22;4249;49.072;9.770;2022-11-20T15:43:23;5.70;54.00
8424;DHT22;4249;49.072;9.770;2022-11-20T15:46:13;5.60;99.90
8424;DHT22;4249;49.072;9.770;2022-11-20T15:49:00;5.60;99.90
8424;DHT22;4249;49.072;9.770;2022-11-20T15:51:49;5.60;99.90
8424;DHT22;4249;49.072;9.770;2022-11-20T15:54:38;5.50;1.00
8424;DHT22;4249;49.072;9.770;2022-11-20T15:57:25;5.50;99.90
8424;DHT22;4249;49.072;9.770;2022-11-20T16:00:15;5.40;99.90
8424;DHT22;4249;49.072;9.770;2022-11-20T16:03:03;5.30;1.00
8424;DHT22;4249;49.072;9.770;2022-11-20T16:05:50;5.20;1.00
8424;DHT22;4249;49.072;9.770;2022-11-20T16:08:37;5.20;1.00
8424;DHT22;4249;49.072;9.770;2022-11-20T16:11:24;5.20;1.00
8424;DHT22;4249;49.072;9.770;2022-11-20T16:14:11;5.10;1.00
8424;DHT22;4249;49.072;9.770;2022-11-20T16:17:17;5.10;1.00
8424;DHT22;4249;49.072;9.770;2022-11-20T16:20:25;5.10;1.00
8424;DHT22;4249;49.072;9.770;2022-11-20T16:23:12;5.10;99.90
8424;DHT22;4249;49.072;9.770;2022-11-20T16:26:09;5.10;99.90
8424;DHT22;4249;49.072;9.770;2022-11-20T16:28:57;5.20;78.10
8424;DHT22;4249;49.072;9.770;2022-11-20T16:31:45;5.20;1.00
8424;DHT22;4249;49.072;9.770;2022-11-20T16:34:33;5.20;1.00
8424;DHT22;4249;49.072;9.770;2022-11-20T16:37:20;5.20;1.00
8424;DHT22;4249;49.072;9.770;2022-11-20T16:40:09;5.30;1.00
8424;DHT22;4249;49.072;9.770;2022-11-20T16:42:56;5.20;12.90
8424;DHT22;4249;49.072;9.770;2022-11-20T16:45:44;5.30;1.00
8424;DHT22;4249;49.072;9.770;2022-11-20T16:48:31;5.30;19.90
8424;DHT22;4249;49.072;9.770;2022-11-20T16:51:20;5.30;1.00
8424;DHT22;4249;49.072;9.770;2022-11-20T16:54:09;5.40;1.00
8424;DHT22;4249;49.072;9.770;2022-11-20T16:56:56;5.40;99.90
8424;DHT22;4249;49.072;9.770;2022-11-20T16:59:43;5.40;1.00
8424;DHT22;4249;49.072;9.770;2022-11-20T17:02:30;5.50;1.00
8424;DHT22;4249;49.072;9.770;2022-11-20T17:05:17;5.60;58.30
8424;DHT22;4249;49.072;9.770;2022-11-20T17:08:06;5.60;1.00
8424;DHT22;4249;49.072;9.770;2022-11-20T17:10:53;5.70;1.00
8424;DHT22;4249;49.072;9.770;2022-11-20T17:13:41;5.60;1.00
8424;DHT22;4249;49.072;9.770;2022-11-20T17:16:29;5.70;1.00
8424;DHT22;4249;49.072;9.770;2022-11-20T17:19:16;5.70;99.90
8424;DHT22;4249;49.072;9.770;2022-11-20T17:22:04;5.60;1.00
8424;DHT22;4249;49.072;9.770;2022-11-20T17:24:53;5.60;1.00
8424;DHT22;4249;49.072;9.770;2022-11-20T17:27:40;5.70;1.00
8424;DHT22;4249;49.072;9.770;2022-11-20T17:30:27;5.70;1.00
8424;DHT22;4249;49.072;9.770;2022-11-20T17:33:14;5.70;1.00
8424;DHT22;4249;49.072;9.770;2022-11-20T17:36:02;5.70;1.00
8424;DHT22;4249;49.072;9.770;2022-11-20T17:38:49;5.80;99.90
8424;DHT22;4249;49.072;9.770;2022-11-20T17:41:38;5.70;1.00
8424;DHT22;4249;49.072;9.770;2022-11-20T17:44:25;5.70;1.00
8424;DHT22;4249;49.072;9.770;2022-11-20T17:47:12;5.60;1.00
8424;DHT22;4249;49.072;9.770;2022-11-20T17:49:59;5.70;59.90
8424;DHT22;4249;49.072;9.770;2022-11-20T17:52:46;5.70;1.00
8424;DHT22;4249;49.072;9.770;2022-11-20T17:55:33;5.70;1.00
8424;DHT22;4249;49.072;9.770;2022-11-20T17:58:36;5.70;99.90
8424;DHT22;4249;49.072;9.770;2022-11-20T18:01:23;5.70;99.90
8424;DHT22;4249;49.072;9.770;2022-11-20T18:04:11;5.70;1.00
8424;DHT22;4249;49.072;9.770;2022-11-20T18:06:58;5.70;1.00
8424;DHT22;4249;49.072;9.770;2022-11-20T18:09:46;5.70;1.00
8424;DHT22;4249;49.072;9.770;2022-11-20T18:12:33;5.80;99.90
8424;DHT22;4249;49.072;9.770;2022-11-20T18:15:22;5.80;99.90
8424;DHT22;4249;49.072;9.770;2022-11-20T18:18:09;5.90;1.00
8424;DHT22;4249;49.072;9.770;2022-11-20T18:20:57;5.90;1.00
8424;DHT22;4249;49.072;9.770;2022-11-20T18:23:45;5.80;1.00
8424;DHT22;4249;49.072;9.770;2022-11-20T18:26:32;5.80;1.00
8424;DHT22;4249;49.072;9.770;2022-11-20T18:29:20;5.80;1.00
8424;DHT22;4249;49.072;9.770;2022-11-20T18:32:08;5.80;1.00
8424;DHT22;4249;49.072;9.770;2022-11-20T18:34:56;5.90;80.10
8424;DHT22;4249;49.072;9.770;2022-11-20T18:37:43;5.90;97.40
8424;DHT22;4249;49.072;9.770;2022-11-20T18:40:30;6.00;1.00
8424;DHT22;4249;49.072;9.770;2022-11-20T18:43:20;6.00;1.00
8424;DHT22;4249;49.072;9.770;2022-11-20T18:46:24;6.00;1.00
8424;DHT22;4249;49.072;9.770;2022-11-20T18:49:13;6.00;1.00
8424;DHT22;4249;49.072;9.770;2022-11-20T18:52:00;6.00;99.90
8424;DHT22;4249;49.072;9.770;2022-11-20T18:54:49;6.00;99.90
8424;DHT22;4249;49.072;9.770;2022-11-20T18:57:36;6.10;1.00
8424;DHT22;4249;49.072;9.770;2022-11-20T19:00:24;6.10;1.00
8424;DHT22;4249;49.072;9.770;2022-11-20T19:03:11;6.10;99.90
8424;DHT22;4249;49.072;9.770;2022-11-20T19:05:59;6.10;1.00